createdAt,value
2022-08-10T00:00:58.430Z,23.48
2022-08-10T00:03:26.168Z,23.46
2022-08-10T00:05:56.315Z,23.50
2022-08-10T00:08:24.986Z,23.50
2022-08-10T00:10:52.851Z,23.54
2022-08-10T00:13:20.639Z,23.51
2022-08-10T00:15:53.947Z,23.44
2022-08-10T00:18:34.522Z,23.47
2022-08-10T00:21:04.053Z,22.94
2022-08-10T00:23:31.806Z,23.26
2022-08-10T00:25:59.559Z,23.15
2022-08-10T00:28:27.330Z,23.26
2022-08-10T00:30:55.257Z,23.29
2022-08-10T00:33:24.645Z,23.06
2022-08-10T00:35:52.372Z,22.97
2022-08-10T00:38:20.096Z,23.19
2022-08-10T00:40:47.793Z,23.30
2022-08-10T00:43:15.459Z,23.21
2022-08-10T00:45:59.446Z,23.10
2022-08-10T00:48:30.629Z,22.96
2022-08-10T00:50:59.234Z,23.17
2022-08-10T00:53:27.502Z,23.10
2022-08-10T00:57:14.093Z,23.05
2022-08-10T00:58:43.198Z,22.92
2022-08-10T01:02:07.093Z,22.86
2022-08-10T01:04:55.514Z,22.82
2022-08-10T01:06:54.817Z,22.86
2022-08-10T01:09:30.000Z,22.95
2022-08-10T01:12:37.771Z,22.97
2022-08-10T01:15:03.531Z,22.73
2022-08-10T01:17:50.507Z,22.57
2022-08-10T01:20:30.749Z,22.52
2022-08-10T01:23:26.011Z,22.80
2022-08-10T01:26:11.800Z,22.78
2022-08-10T01:28:49.076Z,22.61
2022-08-10T01:31:22.218Z,22.53
2022-08-10T01:33:58.483Z,22.51
2022-08-10T01:36:32.870Z,22.43
2022-08-10T01:39:03.674Z,22.34
2022-08-10T01:41:45.587Z,22.39
2022-08-10T01:44:33.672Z,22.34
2022-08-10T01:47:24.495Z,22.37
2022-08-10T01:50:03.507Z,22.49
2022-08-10T01:52:32.382Z,22.41
2022-08-10T01:55:00.347Z,22.46
2022-08-10T01:57:30.278Z,22.46
2022-08-10T02:00:02.652Z,22.33
2022-08-10T02:02:32.478Z,22.46
2022-08-10T02:05:00.675Z,22.04
2022-08-10T02:07:31.800Z,21.83
2022-08-10T02:10:03.913Z,22.03
2022-08-10T02:12:34.131Z,22.26
2022-08-10T02:15:04.216Z,22.30
2022-08-10T02:17:57.637Z,22.34
2022-08-10T02:20:27.333Z,22.24
2022-08-10T02:23:03.525Z,22.13
2022-08-10T02:25:41.738Z,22.09
2022-08-10T02:28:12.601Z,22.00
2022-08-10T02:30:56.380Z,22.01
2022-08-10T02:33:27.461Z,21.99
2022-08-10T02:35:56.276Z,21.79
2022-08-10T02:38:59.421Z,21.78
2022-08-10T02:42:18.242Z,21.49
2022-08-10T02:45:27.650Z,21.87
2022-08-10T02:47:05.874Z,21.91
2022-08-10T02:49:40.090Z,21.89
2022-08-10T02:52:10.420Z,21.79
2022-08-10T02:54:40.524Z,21.95
2022-08-10T02:57:11.215Z,22.00
2022-08-10T02:59:42.385Z,21.99
2022-08-10T03:02:14.689Z,21.97
2022-08-10T03:04:55.184Z,22.02
2022-08-10T03:07:43.302Z,21.88
2022-08-10T03:10:15.475Z,21.83
2022-08-10T03:12:43.964Z,21.81
2022-08-10T03:15:15.408Z,21.71
2022-08-10T03:17:57.048Z,21.61
2022-08-10T03:20:37.483Z,21.59
2022-08-10T03:23:11.669Z,21.55
2022-08-10T03:25:39.493Z,21.45
2022-08-10T03:28:07.511Z,21.46
2022-08-10T03:30:36.018Z,21.40
2022-08-10T03:33:05.338Z,21.30
2022-08-10T03:35:34.600Z,21.33
2022-08-10T03:38:04.101Z,21.40
2022-08-10T03:40:45.072Z,21.35
2022-08-10T03:43:16.958Z,21.38
2022-08-10T03:45:54.450Z,21.34
2022-08-10T03:48:45.167Z,21.42
2022-08-10T03:51:14.053Z,21.40
2022-08-10T03:54:05.626Z,21.39
2022-08-10T03:56:32.344Z,21.47
2022-08-10T03:59:01.047Z,21.33
2022-08-10T04:02:52.642Z,21.49
2022-08-10T04:04:23.775Z,21.20
2022-08-10T04:06:55.620Z,21.46
2022-08-10T04:09:24.989Z,21.36
2022-08-10T04:12:10.761Z,21.07
2022-08-10T04:14:50.751Z,21.29
2022-08-10T04:18:05.222Z,21.35
2022-08-10T04:20:14.921Z,21.30
2022-08-10T04:22:44.893Z,21.25
2022-08-10T04:25:14.156Z,21.14
2022-08-10T04:27:42.508Z,20.99
2022-08-10T04:30:11.161Z,21.11
2022-08-10T04:32:41.101Z,21.15
2022-08-10T04:35:10.589Z,21.03
2022-08-10T04:37:47.282Z,21.14
2022-08-10T04:40:25.479Z,21.23
2022-08-10T04:43:00.204Z,21.29
2022-08-10T04:45:48.972Z,20.86
2022-08-10T04:48:43.227Z,21.06
2022-08-10T04:51:06.343Z,21.08
2022-08-10T04:54:02.816Z,21.26
2022-08-10T04:56:31.199Z,20.85
2022-08-10T04:59:00.082Z,20.93
2022-08-10T05:02:21.359Z,21.01
2022-08-10T05:04:37.371Z,21.07
2022-08-10T05:07:05.861Z,21.06
2022-08-10T05:09:33.600Z,21.10
2022-08-10T05:12:22.729Z,21.18
2022-08-10T05:14:51.890Z,21.06
2022-08-10T05:17:19.709Z,21.16
2022-08-10T05:20:04.046Z,21.22
2022-08-10T05:22:35.929Z,21.22
2022-08-10T05:25:05.354Z,21.23
2022-08-10T05:27:34.578Z,21.29
2022-08-10T05:30:03.770Z,20.98
2022-08-10T05:32:32.430Z,21.00
2022-08-10T05:35:20.073Z,21.23
2022-08-10T05:38:09.489Z,21.11
2022-08-10T05:40:37.581Z,21.25
2022-08-10T05:43:06.825Z,21.17
2022-08-10T05:45:34.628Z,21.26
2022-08-10T05:48:54.646Z,21.12
2022-08-10T05:51:10.658Z,21.22
2022-08-10T05:54:02.116Z,21.08
2022-08-10T05:56:27.071Z,21.21
2022-08-10T06:00:09.893Z,21.28
2022-08-10T06:02:41.136Z,21.27
2022-08-10T06:04:54.173Z,21.42
2022-08-10T06:07:22.485Z,21.44
2022-08-10T06:09:59.367Z,21.41
2022-08-10T06:12:37.555Z,21.42
2022-08-10T06:15:21.631Z,21.22
2022-08-10T06:18:06.085Z,21.41
2022-08-10T06:20:36.209Z,21.29
2022-08-10T06:23:05.376Z,21.29
2022-08-10T06:26:10.020Z,21.38
2022-08-10T06:28:22.167Z,21.38
2022-08-10T06:30:53.648Z,21.38
2022-08-10T06:33:22.481Z,21.51
2022-08-10T06:35:53.463Z,21.51
2022-08-10T06:38:22.718Z,21.32
2022-08-10T06:40:50.897Z,21.39
2022-08-10T06:43:20.014Z,21.69
2022-08-10T06:46:07.777Z,21.59
2022-08-10T06:48:41.208Z,21.58
2022-08-10T06:51:14.716Z,21.67
2022-08-10T06:53:53.434Z,21.77
2022-08-10T06:56:35.980Z,21.75
2022-08-10T06:59:15.545Z,21.74
2022-08-10T07:01:51.724Z,21.73
2022-08-10T07:04:32.839Z,22.11
2022-08-10T07:07:05.568Z,21.97
2022-08-10T07:09:37.220Z,21.98
2022-08-10T07:12:07.537Z,22.11
2022-08-10T07:14:39.177Z,22.29
2022-08-10T07:17:07.169Z,22.37
2022-08-10T07:19:36.469Z,22.30
2022-08-10T07:23:08.131Z,22.95
2022-08-10T07:25:08.420Z,22.93
2022-08-10T07:27:58.331Z,22.87
2022-08-10T07:30:28.090Z,22.90
2022-08-10T07:32:57.131Z,22.99
2022-08-10T07:35:30.707Z,23.13
2022-08-10T07:38:02.959Z,23.44
2022-08-10T07:40:33.534Z,23.34
2022-08-10T07:43:03.049Z,23.35
2022-08-10T07:45:33.220Z,23.38
2022-08-10T07:48:07.499Z,23.62
2022-08-10T07:50:38.689Z,24.12
2022-08-10T07:53:08.667Z,24.52
2022-08-10T07:56:04.372Z,23.98
2022-08-10T07:58:30.008Z,24.30
2022-08-10T08:00:58.753Z,24.82
2022-08-10T08:03:28.128Z,24.80
2022-08-10T08:06:05.308Z,24.92
2022-08-10T08:08:39.880Z,24.33
2022-08-10T08:11:08.258Z,25.10
2022-08-10T08:13:37.171Z,24.76
2022-08-10T08:16:17.053Z,24.71
2022-08-10T08:19:09.903Z,25.11
2022-08-10T08:24:13.657Z,25.12
2022-08-10T08:24:32.359Z,25.18
2022-08-10T08:27:02.516Z,25.14
2022-08-10T08:29:30.414Z,24.99
2022-08-10T08:32:02.315Z,25.24
2022-08-10T08:34:31.756Z,26.17
2022-08-10T08:37:03.117Z,25.26
2022-08-10T08:39:33.050Z,25.62
2022-08-10T08:42:15.101Z,25.38
2022-08-10T08:45:03.025Z,25.54
2022-08-10T08:48:03.736Z,26.44
2022-08-10T08:50:38.496Z,25.94
2022-08-10T08:53:22.402Z,26.02
2022-08-10T08:56:03.672Z,25.58
2022-08-10T08:58:43.353Z,25.99
2022-08-10T09:01:21.946Z,25.92
2022-08-10T09:03:59.820Z,26.11
2022-08-10T09:06:43.561Z,26.21
2022-08-10T09:09:22.660Z,26.30
2022-08-10T09:11:57.861Z,26.51
2022-08-10T09:14:27.162Z,26.45
2022-08-10T09:16:58.747Z,26.37
2022-08-10T09:19:36.394Z,26.50
2022-08-10T09:22:18.487Z,26.67
2022-08-10T09:24:53.044Z,26.63
2022-08-10T09:27:23.738Z,26.35
2022-08-10T09:29:55.799Z,26.24
2022-08-10T09:36:16.929Z,26.70
2022-08-10T09:36:24.973Z,26.71
2022-08-10T09:38:23.763Z,26.66
2022-08-10T09:41:02.991Z,26.83
2022-08-10T09:43:43.241Z,27.10
2022-08-10T09:46:17.582Z,27.61
2022-08-10T09:48:51.253Z,27.09
2022-08-10T09:51:44.900Z,27.26
2022-08-10T09:54:22.116Z,27.02
2022-08-10T09:57:17.888Z,26.98
2022-08-10T10:00:01.648Z,27.11
2022-08-10T10:02:37.202Z,27.15
2022-08-10T10:05:15.033Z,27.23
2022-08-10T10:07:47.389Z,27.13
2022-08-10T10:10:19.745Z,27.15
2022-08-10T10:12:54.432Z,27.21
2022-08-10T10:15:30.534Z,27.23
2022-08-10T10:18:10.329Z,27.14
2022-08-10T10:20:42.189Z,27.49
2022-08-10T10:23:15.888Z,27.70
2022-08-10T10:25:50.961Z,27.17
2022-08-10T10:29:11.320Z,27.14
2022-08-10T10:31:29.580Z,26.97
2022-08-10T10:34:07.932Z,26.99
2022-08-10T10:36:35.860Z,27.22
2022-08-10T10:39:04.477Z,27.50
2022-08-10T10:42:03.528Z,27.26
2022-08-10T10:44:42.125Z,28.12
2022-08-10T10:47:30.923Z,27.67
2022-08-10T10:50:06.504Z,28.14
2022-08-10T10:52:43.080Z,27.63
2022-08-10T10:55:17.431Z,27.44
2022-08-10T10:57:58.466Z,27.54
2022-08-10T11:00:38.476Z,27.37
2022-08-10T11:03:37.703Z,27.50
2022-08-10T11:06:11.440Z,27.18
2022-08-10T11:08:41.851Z,27.52
2022-08-10T11:11:59.633Z,27.30
2022-08-10T11:14:27.631Z,27.74
2022-08-10T11:17:04.062Z,27.32
2022-08-10T11:20:00.463Z,27.50
2022-08-10T11:22:36.663Z,27.43
2022-08-10T11:25:11.364Z,28.00
2022-08-10T11:27:48.628Z,27.79
2022-08-10T11:30:20.037Z,27.64
2022-08-10T11:33:00.076Z,27.72
2022-08-10T11:35:35.107Z,28.13
2022-08-10T11:38:31.844Z,28.15
2022-08-10T11:42:05.346Z,28.18
2022-08-10T11:43:59.278Z,28.09
2022-08-10T11:46:31.944Z,27.85
2022-08-10T11:49:04.925Z,28.02
2022-08-10T11:51:38.808Z,28.10
2022-08-10T11:54:10.040Z,28.32
2022-08-10T11:56:46.211Z,28.37
2022-08-10T11:59:44.337Z,28.50
2022-08-10T12:02:15.166Z,28.37
2022-08-10T12:04:48.953Z,28.70
2022-08-10T12:10:05.134Z,28.41
2022-08-10T12:10:13.391Z,28.14
2022-08-10T12:12:46.745Z,28.50
2022-08-10T12:15:18.185Z,28.51
2022-08-10T12:17:49.017Z,28.21
2022-08-10T12:20:26.421Z,28.22
2022-08-10T12:22:57.220Z,28.31
2022-08-10T12:25:55.783Z,28.28
2022-08-10T12:28:21.656Z,28.62
2022-08-10T12:30:59.214Z,28.83
2022-08-10T12:33:32.040Z,28.60
2022-08-10T12:36:28.069Z,28.83
2022-08-10T12:39:03.218Z,28.71
2022-08-10T12:41:44.237Z,28.72
2022-08-10T12:44:14.339Z,28.62
2022-08-10T12:46:51.423Z,28.60
2022-08-10T12:49:22.582Z,28.59
2022-08-10T12:52:00.612Z,28.81
2022-08-10T12:54:31.713Z,28.83
2022-08-10T12:57:03.075Z,28.78
2022-08-10T12:59:32.681Z,28.74
2022-08-10T13:02:13.423Z,28.79
2022-08-10T13:04:43.248Z,29.02
2022-08-10T13:08:05.321Z,29.09
2022-08-10T13:10:04.536Z,29.02
2022-08-10T13:12:39.015Z,28.70
2022-08-10T13:15:45.593Z,29.04
2022-08-10T13:18:02.842Z,29.13
2022-08-10T13:20:37.247Z,29.03
2022-08-10T13:23:11.750Z,28.68
2022-08-10T13:25:42.409Z,28.78
2022-08-10T13:28:37.927Z,28.65
2022-08-10T13:31:03.805Z,28.41
2022-08-10T13:34:39.342Z,28.72
2022-08-10T13:36:23.049Z,28.89
2022-08-10T13:38:53.117Z,28.82
2022-08-10T13:41:21.352Z,28.90
2022-08-10T13:43:53.422Z,28.58
2022-08-10T13:46:23.041Z,28.29
2022-08-10T13:48:53.199Z,28.52
2022-08-10T13:51:23.329Z,28.64
2022-08-10T13:54:12.885Z,28.70
2022-08-10T13:56:43.232Z,28.76
2022-08-10T13:59:11.950Z,28.56
2022-08-10T14:01:48.622Z,28.59
2022-08-10T14:04:16.516Z,28.89
2022-08-10T14:06:51.383Z,29.06
2022-08-10T14:09:25.619Z,28.87
2022-08-10T14:11:53.790Z,28.80
2022-08-10T14:14:22.532Z,28.91
2022-08-10T14:16:50.899Z,28.98
2022-08-10T14:19:21.216Z,28.91
2022-08-10T14:21:49.948Z,28.79
2022-08-10T14:24:23.917Z,28.90
2022-08-10T14:26:52.888Z,28.78
2022-08-10T14:29:22.152Z,28.95
2022-08-10T14:32:00.868Z,28.95
2022-08-10T14:36:16.576Z,28.88
2022-08-10T14:37:23.214Z,28.80
2022-08-10T14:39:56.751Z,28.82
2022-08-10T14:42:29.347Z,28.82
2022-08-10T14:44:59.933Z,29.00
2022-08-10T14:47:59.467Z,29.04
2022-08-10T14:50:32.509Z,28.97
2022-08-10T14:53:03.197Z,28.89
2022-08-10T14:55:32.452Z,28.71
2022-08-10T14:58:22.898Z,29.01
2022-08-10T15:00:52.043Z,28.93
2022-08-10T15:03:58.721Z,28.97
2022-08-10T15:06:17.203Z,28.73
2022-08-10T15:08:47.487Z,28.57
2022-08-10T15:12:13.488Z,28.92
2022-08-10T15:14:41.588Z,28.81
2022-08-10T15:16:55.344Z,28.76
2022-08-10T15:20:01.385Z,28.92
2022-08-10T15:22:36.565Z,28.74
2022-08-10T15:25:18.374Z,28.96
2022-08-10T15:27:53.370Z,28.68
2022-08-10T15:30:30.081Z,28.61
2022-08-10T15:33:21.392Z,28.52
2022-08-10T15:36:25.658Z,28.81
2022-08-10T15:38:59.408Z,28.85
2022-08-10T15:41:59.085Z,28.94
2022-08-10T15:44:36.553Z,29.01
2022-08-10T15:47:08.316Z,28.93
2022-08-10T15:49:45.231Z,28.88
2022-08-10T15:53:01.111Z,28.74
2022-08-10T15:55:41.878Z,28.73
2022-08-10T15:58:05.807Z,28.92
2022-08-10T16:00:38.199Z,28.90
2022-08-10T16:03:12.971Z,28.88
2022-08-10T16:06:02.288Z,28.69
2022-08-10T16:08:50.173Z,28.66
2022-08-10T16:11:37.956Z,28.66
2022-08-10T16:14:17.529Z,28.64
2022-08-10T16:16:50.199Z,28.62
2022-08-10T16:19:24.888Z,28.77
2022-08-10T16:21:57.091Z,28.82
2022-08-10T16:24:25.321Z,28.90
2022-08-10T16:26:54.424Z,28.78
2022-08-10T16:29:23.840Z,28.57
2022-08-10T16:31:55.344Z,28.58
2022-08-10T16:34:23.623Z,28.82
2022-08-10T16:36:54.185Z,28.79
2022-08-10T16:39:57.920Z,28.79
2022-08-10T16:42:17.994Z,28.49
2022-08-10T16:44:52.538Z,28.68
2022-08-10T16:47:27.559Z,28.82
2022-08-10T16:49:57.032Z,28.81
2022-08-10T16:52:27.449Z,28.76
2022-08-10T16:54:59.122Z,28.81
2022-08-10T16:57:27.650Z,28.88
2022-08-10T16:59:55.888Z,28.89
2022-08-10T17:02:26.309Z,28.84
2022-08-10T17:04:55.088Z,28.71
2022-08-10T17:07:30.567Z,28.63
2022-08-10T17:09:59.084Z,28.82
2022-08-10T17:12:28.395Z,28.86
2022-08-10T17:15:09.203Z,28.79
2022-08-10T17:17:42.120Z,28.89
2022-08-10T17:20:31.400Z,28.54
2022-08-10T17:23:03.192Z,28.55
2022-08-10T17:25:48.551Z,28.69
2022-08-10T17:28:36.041Z,28.77
2022-08-10T17:31:39.685Z,28.54
2022-08-10T17:34:00.786Z,28.72
2022-08-10T17:36:33.748Z,28.74
2022-08-10T17:39:03.260Z,28.57
2022-08-10T17:41:33.229Z,28.50
2022-08-10T17:44:03.448Z,28.50
2022-08-10T17:46:33.661Z,28.50
2022-08-10T17:49:07.162Z,28.53
2022-08-10T17:51:35.349Z,28.27
2022-08-10T17:54:08.899Z,28.34
2022-08-10T17:56:37.902Z,28.25
2022-08-10T17:59:16.902Z,28.19
2022-08-10T18:01:58.565Z,28.07
2022-08-10T18:04:41.913Z,28.21
2022-08-10T18:07:11.149Z,28.32
2022-08-10T18:09:41.270Z,28.39
2022-08-10T18:12:17.840Z,28.22
2022-08-10T18:14:47.559Z,28.23
2022-08-10T18:17:19.584Z,28.15
2022-08-10T18:19:52.978Z,28.21
2022-08-10T18:22:21.509Z,28.21
2022-08-10T18:24:50.423Z,28.19
2022-08-10T18:27:19.389Z,28.07
2022-08-10T18:29:51.046Z,28.04
2022-08-10T18:32:20.056Z,27.91
2022-08-10T18:34:50.870Z,28.08
2022-08-10T18:37:23.636Z,27.84
2022-08-10T18:39:51.888Z,27.79
2022-08-10T18:42:22.857Z,27.88
2022-08-10T18:44:54.941Z,27.80
2022-08-10T18:47:30.329Z,27.79
2022-08-10T18:50:02.088Z,27.86
2022-08-10T18:52:31.751Z,27.86
2022-08-10T18:55:14.474Z,27.96
2022-08-10T18:58:08.609Z,28.31
2022-08-10T19:00:45.336Z,28.36
2022-08-10T19:03:26.527Z,28.45
2022-08-10T19:06:10.812Z,28.45
2022-08-10T19:08:57.265Z,27.82
2022-08-10T19:11:35.392Z,27.43
2022-08-10T19:14:09.200Z,27.20
2022-08-10T19:16:42.443Z,27.15
2022-08-10T19:19:31.284Z,26.96
2022-08-10T19:22:04.847Z,26.65
2022-08-10T19:24:45.037Z,26.31
2022-08-10T19:27:16.359Z,26.45
2022-08-10T19:30:09.404Z,26.41
2022-08-10T19:32:53.407Z,26.15
2022-08-10T19:35:29.774Z,26.32
2022-08-10T19:38:06.911Z,26.30
2022-08-10T19:40:52.933Z,26.00
2022-08-10T19:44:00.807Z,26.09
2022-08-10T19:46:25.931Z,26.28
2022-08-10T19:49:01.800Z,26.23
2022-08-10T19:51:36.937Z,26.31
2022-08-10T19:54:11.299Z,26.09
2022-08-10T19:56:47.697Z,26.41
2022-08-10T20:00:15.166Z,26.12
2022-08-10T20:02:21.070Z,26.40
2022-08-10T20:05:00.873Z,26.15
2022-08-10T20:07:35.451Z,26.31
2022-08-10T20:10:11.132Z,25.99
2022-08-10T20:12:46.227Z,25.83
2022-08-10T20:15:24.048Z,25.88
2022-08-10T20:17:57.316Z,25.91
2022-08-10T20:20:31.611Z,25.91
2022-08-10T20:23:06.084Z,26.07
2022-08-10T20:25:35.322Z,25.92
2022-08-10T20:28:10.907Z,26.22
2022-08-10T20:30:44.717Z,26.12
2022-08-10T20:33:16.264Z,26.23
2022-08-10T20:35:49.409Z,25.99
2022-08-10T20:38:27.144Z,25.88
2022-08-10T20:41:07.493Z,26.14
2022-08-10T20:43:40.502Z,26.06
2022-08-10T20:46:14.281Z,26.24
2022-08-10T20:48:45.475Z,25.84
2022-08-10T20:51:15.561Z,26.14
2022-08-10T20:53:48.295Z,25.86
2022-08-10T20:56:23.194Z,25.88
2022-08-10T20:59:08.872Z,25.89
2022-08-10T21:02:07.213Z,26.04
2022-08-10T21:04:45.047Z,26.26
2022-08-10T21:07:57.878Z,25.79
2022-08-10T21:10:24.352Z,25.73
2022-08-10T21:13:03.004Z,26.22
2022-08-10T21:15:48.770Z,26.26
2022-08-10T21:18:25.293Z,26.41
2022-08-10T21:23:50.449Z,26.48
2022-08-10T21:25:42.184Z,26.34
2022-08-10T21:26:37.099Z,26.49
2022-08-10T21:29:24.072Z,26.51
2022-08-10T21:32:17.631Z,26.49
2022-08-10T21:35:03.060Z,26.33
2022-08-10T21:37:41.209Z,26.38
2022-08-10T21:40:32.407Z,26.26
2022-08-10T21:43:44.681Z,26.29
2022-08-10T21:49:53.769Z,26.33
2022-08-10T21:52:53.740Z,26.12
2022-08-10T21:55:55.938Z,26.21
2022-08-10T21:58:56.324Z,26.33
2022-08-10T22:01:51.281Z,26.08
2022-08-10T22:07:47.316Z,26.08
2022-08-10T22:10:37.766Z,26.05
2022-08-10T22:13:24.219Z,25.93
2022-08-10T22:16:12.526Z,25.89
2022-08-10T22:19:04.570Z,25.98
2022-08-10T22:22:04.535Z,25.99
2022-08-10T22:25:06.196Z,25.94
2022-08-10T22:28:03.464Z,25.99
2022-08-10T22:31:14.787Z,25.96
2022-08-10T22:31:26.982Z,26.19
2022-08-10T22:31:27.040Z,26.17
2022-08-10T22:34:00.921Z,25.75
2022-08-10T22:37:08.652Z,25.59
2022-08-10T22:40:11.137Z,25.48
2022-08-10T22:43:11.145Z,25.77
2022-08-10T22:46:04.194Z,25.82
2022-08-10T22:48:50.141Z,25.73
2022-08-10T22:51:23.868Z,25.67
2022-08-10T22:54:11.681Z,25.75
2022-08-10T22:57:18.617Z,25.62
2022-08-10T22:59:46.933Z,25.48
2022-08-10T23:02:23.423Z,25.56
2022-08-10T23:04:53.597Z,25.69
2022-08-10T23:07:24.848Z,25.62
2022-08-10T23:09:57.736Z,25.72
2022-08-10T23:12:30.261Z,25.50
2022-08-10T23:15:16.788Z,25.44
2022-08-10T23:18:07.378Z,25.53
2022-08-10T23:20:36.772Z,25.66
2022-08-10T23:23:10.185Z,25.63
2022-08-10T23:25:57.164Z,25.57
2022-08-10T23:28:38.587Z,25.60
2022-08-10T23:31:15.828Z,25.61
2022-08-10T23:33:45.626Z,25.52
2022-08-10T23:36:34.656Z,25.51
2022-08-10T23:39:26.907Z,25.46
2022-08-10T23:41:56.206Z,25.54
2022-08-10T23:44:24.822Z,25.46
2022-08-10T23:46:53.429Z,25.45
2022-08-10T23:49:21.983Z,25.45
2022-08-10T23:51:56.125Z,25.50
2022-08-10T23:54:27.036Z,25.55
2022-08-10T23:57:01.021Z,25.50
2022-08-10T23:59:31.981Z,25.47
